createdAt,value
2022-10-27T00:00:09.909Z,3.72
2022-10-27T00:00:21.833Z,3.75
2022-10-27T00:00:34.094Z,3.97
2022-10-27T00:00:47.684Z,4.43
2022-10-27T00:00:59.589Z,4.68
2022-10-27T00:01:11.562Z,4.78
2022-10-27T00:01:23.699Z,4.65
2022-10-27T00:01:35.874Z,3.92
2022-10-27T00:01:48.050Z,3.90
2022-10-27T00:02:00.064Z,3.72
2022-10-27T00:02:12.747Z,3.70
2022-10-27T00:02:24.793Z,3.88
2022-10-27T00:02:36.756Z,3.90
2022-10-27T00:02:48.729Z,3.75
2022-10-27T00:03:00.929Z,3.65
2022-10-27T00:03:15.819Z,3.85
2022-10-27T00:03:45.093Z,4.20
2022-10-27T00:03:57.101Z,4.28
2022-10-27T00:04:09.022Z,4.30
2022-10-27T00:04:20.946Z,4.45
2022-10-27T00:04:32.923Z,4.43
2022-10-27T00:04:44.923Z,4.30
2022-10-27T00:04:56.848Z,4.40
2022-10-27T00:05:09.034Z,4.63
2022-10-27T00:05:22.281Z,4.68
2022-10-27T00:05:34.537Z,4.70
2022-10-27T00:05:47.533Z,4.47
2022-10-27T00:06:04.438Z,4.35
2022-10-27T00:06:16.585Z,4.07
2022-10-27T00:06:28.464Z,4.18
2022-10-27T00:06:40.422Z,4.65
2022-10-27T00:06:52.497Z,4.80
2022-10-27T00:07:04.586Z,4.65
2022-10-27T00:07:16.483Z,4.43
2022-10-27T00:07:28.377Z,4.38
2022-10-27T00:07:40.297Z,4.40
2022-10-27T00:07:52.586Z,4.18
2022-10-27T00:08:05.156Z,4.40
2022-10-27T00:08:19.679Z,4.70
2022-10-27T00:08:31.671Z,4.75
2022-10-27T00:08:43.759Z,4.32
2022-10-27T00:08:55.650Z,4.25
2022-10-27T00:09:07.573Z,4.25
2022-10-27T00:09:19.636Z,4.20
2022-10-27T00:09:31.668Z,4.20
2022-10-27T00:09:43.548Z,4.32
2022-10-27T00:09:55.435Z,4.60
2022-10-27T00:10:07.965Z,4.72
2022-10-27T00:10:19.902Z,4.50
2022-10-27T00:10:31.838Z,4.30
2022-10-27T00:10:44.979Z,4.25
2022-10-27T00:11:02.705Z,4.32
2022-10-27T00:11:14.591Z,4.30
2022-10-27T00:11:26.532Z,4.13
2022-10-27T00:11:38.471Z,3.90
2022-10-27T00:11:50.389Z,4.00
2022-10-27T00:12:02.873Z,3.97
2022-10-27T00:12:14.798Z,4.05
2022-10-27T00:12:26.744Z,4.20
2022-10-27T00:12:38.624Z,4.10
2022-10-27T00:12:50.701Z,4.00
2022-10-27T00:13:06.520Z,4.05
2022-10-27T00:13:18.448Z,4.40
2022-10-27T00:13:31.354Z,4.30
2022-10-27T00:13:43.430Z,4.22
2022-10-27T00:13:55.339Z,3.95
2022-10-27T00:14:07.254Z,3.90
2022-10-27T00:14:19.152Z,4.10
2022-10-27T00:14:31.098Z,4.00
2022-10-27T00:14:42.987Z,4.00
2022-10-27T00:14:54.900Z,4.20
2022-10-27T00:15:07.552Z,4.30
2022-10-27T00:15:19.637Z,4.30
2022-10-27T00:15:31.518Z,4.30
2022-10-27T00:15:43.546Z,4.18
2022-10-27T00:16:00.468Z,4.13
2022-10-27T00:16:16.519Z,4.07
2022-10-27T00:16:28.429Z,3.53
2022-10-27T00:16:41.112Z,3.38
2022-10-27T00:16:54.893Z,3.10
2022-10-27T00:17:06.820Z,2.95
2022-10-27T00:17:19.023Z,3.00
2022-10-27T00:17:31.282Z,2.97
2022-10-27T00:17:43.280Z,3.08
2022-10-27T00:17:55.151Z,3.17
2022-10-27T00:18:11.436Z,3.17
2022-10-27T00:18:23.330Z,2.97
2022-10-27T00:18:35.436Z,2.95
2022-10-27T00:18:47.394Z,3.00
2022-10-27T00:18:59.293Z,3.05
2022-10-27T00:19:11.460Z,2.75
2022-10-27T00:19:25.126Z,2.70
2022-10-27T00:19:37.137Z,3.05
2022-10-27T00:19:49.031Z,3.25
2022-10-27T00:20:01.355Z,6.63
2022-10-27T00:20:13.707Z,7.82
2022-10-27T00:20:25.664Z,6.90
2022-10-27T00:20:38.351Z,5.68
2022-10-27T00:21:11.011Z,4.80
2022-10-27T00:21:22.977Z,4.28
2022-10-27T00:21:34.880Z,4.35
2022-10-27T00:21:47.389Z,4.10
2022-10-27T00:21:59.571Z,3.60
2022-10-27T00:22:11.578Z,3.35
2022-10-27T00:22:23.562Z,3.25
2022-10-27T00:22:38.155Z,3.17
2022-10-27T00:22:50.457Z,3.47
2022-10-27T00:23:02.474Z,4.30
2022-10-27T00:23:14.379Z,4.68
2022-10-27T00:23:26.570Z,4.10
2022-10-27T00:23:39.015Z,4.15
2022-10-27T00:23:51.370Z,3.60
2022-10-27T00:24:03.389Z,3.20
2022-10-27T00:24:15.334Z,2.92
2022-10-27T00:24:27.248Z,2.72
2022-10-27T00:24:39.152Z,2.80
2022-10-27T00:24:51.102Z,2.85
2022-10-27T00:25:04.112Z,3.05
2022-10-27T00:25:16.105Z,3.22
2022-10-27T00:25:28.093Z,3.28
2022-10-27T00:25:39.952Z,3.13
2022-10-27T00:25:55.572Z,3.00
2022-10-27T00:26:11.552Z,3.00
2022-10-27T00:26:23.447Z,3.10
2022-10-27T00:26:35.398Z,3.05
2022-10-27T00:26:47.541Z,3.05
2022-10-27T00:26:59.484Z,3.03
2022-10-27T00:27:11.389Z,3.08
2022-10-27T00:27:23.410Z,2.92
2022-10-27T00:27:35.397Z,2.80
2022-10-27T00:27:47.321Z,2.88
2022-10-27T00:27:59.275Z,3.20
2022-10-27T00:28:11.167Z,3.15
2022-10-27T00:28:41.842Z,2.90
2022-10-27T00:28:53.782Z,3.13
2022-10-27T00:29:05.665Z,3.08
2022-10-27T00:29:17.620Z,2.88
2022-10-27T00:29:29.493Z,2.90
2022-10-27T00:29:41.415Z,3.10
2022-10-27T00:29:53.291Z,3.55
2022-10-27T00:30:05.686Z,3.50
2022-10-27T00:30:17.844Z,3.50
2022-10-27T00:30:29.737Z,3.60
2022-10-27T00:30:41.681Z,3.30
2022-10-27T00:31:11.896Z,3.00
2022-10-27T00:31:23.822Z,3.10
2022-10-27T00:31:36.023Z,3.28
2022-10-27T00:31:47.929Z,3.40
2022-10-27T00:32:00.645Z,3.40
2022-10-27T00:32:12.703Z,3.40
2022-10-27T00:32:25.421Z,3.00
2022-10-27T00:32:37.325Z,2.90
2022-10-27T00:32:49.628Z,2.75
2022-10-27T00:33:01.844Z,2.63
2022-10-27T00:33:13.749Z,2.75
2022-10-27T00:33:25.791Z,2.97
2022-10-27T00:33:38.797Z,3.20
2022-10-27T00:33:51.434Z,3.00
2022-10-27T00:34:03.507Z,3.05
2022-10-27T00:34:15.460Z,3.00
2022-10-27T00:34:27.549Z,3.08
2022-10-27T00:34:39.433Z,3.20
2022-10-27T00:34:51.306Z,3.40
2022-10-27T00:35:03.265Z,3.25
2022-10-27T00:35:15.181Z,3.28
2022-10-27T00:35:27.038Z,3.03
2022-10-27T00:35:38.929Z,2.83
2022-10-27T00:35:50.831Z,2.90
2022-10-27T00:36:07.965Z,2.85
2022-10-27T00:36:22.657Z,2.90
2022-10-27T00:36:34.678Z,3.05
2022-10-27T00:36:46.840Z,2.90
2022-10-27T00:36:58.717Z,3.08
2022-10-27T00:37:10.912Z,2.90
2022-10-27T00:37:22.808Z,3.10
2022-10-27T00:37:34.865Z,3.22
2022-10-27T00:37:46.784Z,3.25
2022-10-27T00:37:58.697Z,3.08
2022-10-27T00:38:10.566Z,2.97
2022-10-27T00:38:23.456Z,2.75
2022-10-27T00:38:35.842Z,2.80
2022-10-27T00:38:47.933Z,3.08
2022-10-27T00:39:00.149Z,3.20
2022-10-27T00:39:12.219Z,3.38
2022-10-27T00:39:24.101Z,3.17
2022-10-27T00:39:35.989Z,3.22
2022-10-27T00:39:47.965Z,3.20
2022-10-27T00:39:59.854Z,3.33
2022-10-27T00:40:12.333Z,3.08
2022-10-27T00:40:24.246Z,3.20
2022-10-27T00:40:37.896Z,3.15
2022-10-27T00:40:50.004Z,3.25
2022-10-27T00:41:02.553Z,3.08
2022-10-27T00:41:25.583Z,3.15
2022-10-27T00:41:42.097Z,3.30
2022-10-27T00:41:54.068Z,3.15
2022-10-27T00:42:06.032Z,3.25
2022-10-27T00:42:18.053Z,3.30
2022-10-27T00:42:30.019Z,3.13
2022-10-27T00:42:41.964Z,2.90
2022-10-27T00:42:53.876Z,3.10
2022-10-27T00:43:27.484Z,3.45
2022-10-27T00:43:39.760Z,2.95
2022-10-27T00:43:51.981Z,2.90
2022-10-27T00:44:31.745Z,3.05
2022-10-27T00:44:47.238Z,3.42
2022-10-27T00:44:59.225Z,3.53
2022-10-27T00:45:11.205Z,3.50
2022-10-27T00:45:23.219Z,3.70
2022-10-27T00:45:35.117Z,3.70
2022-10-27T00:45:47.094Z,3.60
2022-10-27T00:46:11.785Z,3.55
2022-10-27T00:46:45.721Z,3.25
2022-10-27T00:47:01.421Z,3.60
2022-10-27T00:47:20.879Z,3.40
2022-10-27T00:47:36.173Z,3.25
2022-10-27T00:47:49.030Z,3.25
2022-10-27T00:48:01.076Z,3.20
2022-10-27T00:48:13.048Z,3.33
2022-10-27T00:48:26.680Z,3.42
2022-10-27T00:48:38.721Z,3.30
2022-10-27T00:48:55.073Z,3.45
2022-10-27T00:49:10.634Z,3.65
2022-10-27T00:49:27.462Z,3.80
2022-10-27T00:49:46.000Z,3.50
2022-10-27T00:50:11.009Z,3.30
2022-10-27T00:50:25.808Z,3.08
2022-10-27T00:50:37.733Z,3.13
2022-10-27T00:50:49.954Z,3.40
2022-10-27T00:51:03.710Z,3.30
2022-10-27T00:51:19.047Z,3.23
2022-10-27T00:51:31.644Z,3.47
2022-10-27T00:51:50.365Z,3.45
2022-10-27T00:52:18.042Z,3.30
2022-10-27T00:52:48.461Z,3.47
2022-10-27T00:53:00.558Z,3.30
2022-10-27T00:53:12.625Z,3.30
2022-10-27T00:53:24.924Z,3.33
2022-10-27T00:53:37.014Z,3.60
2022-10-27T00:53:49.860Z,3.72
2022-10-27T00:54:01.989Z,3.60
2022-10-27T00:54:15.794Z,3.35
2022-10-27T00:54:31.902Z,3.47
2022-10-27T00:54:44.253Z,3.38
2022-10-27T00:55:00.559Z,3.20
2022-10-27T00:55:18.491Z,3.38
2022-10-27T00:55:36.524Z,3.83
2022-10-27T00:55:48.497Z,3.55
2022-10-27T00:56:01.375Z,3.20
2022-10-27T00:56:14.072Z,3.60
2022-10-27T00:56:26.231Z,3.80
2022-10-27T00:56:39.032Z,3.47
2022-10-27T00:56:53.876Z,3.60
2022-10-27T00:57:08.587Z,3.40
2022-10-27T00:57:21.105Z,3.05
2022-10-27T00:57:33.684Z,3.03
2022-10-27T00:57:49.086Z,2.92
2022-10-27T00:58:04.699Z,3.20
2022-10-27T00:58:20.090Z,3.42
2022-10-27T00:58:33.138Z,3.45
2022-10-27T00:58:46.264Z,3.38
2022-10-27T00:58:58.658Z,3.40
2022-10-27T00:59:10.780Z,3.35
2022-10-27T00:59:24.080Z,3.35
2022-10-27T00:59:37.612Z,3.20
2022-10-27T00:59:49.702Z,3.35
2022-10-27T01:00:04.630Z,3.50
2022-10-27T01:00:17.675Z,3.65
2022-10-27T01:00:31.354Z,3.80
2022-10-27T01:00:43.604Z,3.67
2022-10-27T01:00:55.713Z,3.63
2022-10-27T01:01:07.764Z,3.65
2022-10-27T01:01:19.914Z,3.50
2022-10-27T01:01:32.368Z,3.38
2022-10-27T01:01:45.735Z,3.40
2022-10-27T01:02:11.208Z,3.20
2022-10-27T01:02:23.365Z,3.30
2022-10-27T01:02:36.168Z,3.28
2022-10-27T01:02:49.654Z,3.45
2022-10-27T01:03:02.387Z,3.55
2022-10-27T01:03:18.305Z,3.53
2022-10-27T01:03:31.361Z,3.40
2022-10-27T01:03:45.014Z,3.35
2022-10-27T01:03:57.304Z,3.20
2022-10-27T01:04:09.795Z,3.17
2022-10-27T01:04:51.339Z,3.20
2022-10-27T01:05:24.217Z,3.47
2022-10-27T01:05:36.336Z,3.50
2022-10-27T01:05:49.826Z,3.40
2022-10-27T01:06:02.165Z,3.50
2022-10-27T01:06:14.619Z,3.40
2022-10-27T01:06:27.192Z,3.50
2022-10-27T01:06:39.123Z,3.25
2022-10-27T01:06:51.394Z,3.20
2022-10-27T01:07:03.606Z,3.20
2022-10-27T01:07:18.890Z,3.30
2022-10-27T01:07:31.107Z,3.50
2022-10-27T01:07:44.658Z,3.40
2022-10-27T01:08:00.086Z,3.40
2022-10-27T01:08:13.816Z,3.45
2022-10-27T01:08:26.837Z,3.35
2022-10-27T01:08:39.260Z,3.22
2022-10-27T01:08:51.671Z,3.38
2022-10-27T01:09:05.318Z,3.50
2022-10-27T01:09:18.015Z,3.70
2022-10-27T01:09:30.815Z,3.88
2022-10-27T01:09:43.803Z,3.70
2022-10-27T01:09:56.444Z,3.47
2022-10-27T01:10:09.169Z,3.97
2022-10-27T01:10:21.616Z,4.53
2022-10-27T01:10:33.700Z,4.38
2022-10-27T01:10:46.311Z,3.63
2022-10-27T01:10:58.237Z,3.90
2022-10-27T01:11:10.260Z,3.90
2022-10-27T01:11:22.149Z,3.65
2022-10-27T01:11:34.070Z,3.50
2022-10-27T01:11:45.993Z,3.40
2022-10-27T01:11:57.935Z,3.33
2022-10-27T01:12:09.884Z,3.40
2022-10-27T01:12:35.138Z,3.80
2022-10-27T01:12:47.856Z,3.78
2022-10-27T01:13:01.017Z,3.40
2022-10-27T01:13:13.450Z,3.47
2022-10-27T01:13:25.414Z,3.58
2022-10-27T01:13:38.689Z,3.72
2022-10-27T01:13:50.743Z,3.92
2022-10-27T01:14:02.839Z,3.65
2022-10-27T01:14:15.385Z,3.53
2022-10-27T01:14:28.140Z,3.42
2022-10-27T01:14:40.490Z,3.50
2022-10-27T01:14:52.724Z,3.50
2022-10-27T01:15:05.559Z,3.30
2022-10-27T01:15:17.872Z,3.42
2022-10-27T01:15:47.575Z,3.40
2022-10-27T01:16:17.458Z,3.10
2022-10-27T01:16:57.270Z,3.28
2022-10-27T01:17:36.439Z,3.40
2022-10-27T01:18:01.410Z,3.30
2022-10-27T01:18:22.115Z,3.42
2022-10-27T01:18:55.041Z,3.35
2022-10-27T01:19:18.679Z,3.83
2022-10-27T01:20:02.383Z,3.47
2022-10-27T01:20:20.194Z,3.30
2022-10-27T01:20:57.065Z,3.20
2022-10-27T01:21:29.152Z,3.42
2022-10-27T01:22:38.305Z,3.45
2022-10-27T01:23:12.507Z,3.80
2022-10-27T01:23:30.000Z,3.58
2022-10-27T01:24:11.371Z,3.65
2022-10-27T01:24:29.034Z,3.58
2022-10-27T01:25:00.103Z,3.50
2022-10-27T01:25:17.691Z,3.70
2022-10-27T01:25:48.469Z,3.35
2022-10-27T01:26:30.914Z,3.63
2022-10-27T01:26:59.830Z,3.60
2022-10-27T01:27:44.733Z,3.58
2022-10-27T01:28:08.802Z,3.55
2022-10-27T01:28:57.957Z,3.40
2022-10-27T01:29:33.686Z,3.80
2022-10-27T01:30:06.922Z,3.40
2022-10-27T01:30:22.420Z,3.58
2022-10-27T01:30:50.205Z,3.38
2022-10-27T01:31:11.587Z,3.42
2022-10-27T01:31:28.168Z,3.40
2022-10-27T01:31:46.910Z,3.30
2022-10-27T01:32:24.068Z,3.28
2022-10-27T01:33:12.628Z,3.53
2022-10-27T01:33:36.469Z,3.53
2022-10-27T01:33:54.033Z,3.50
2022-10-27T01:34:25.259Z,3.10
2022-10-27T01:34:48.005Z,3.40
2022-10-27T01:35:07.270Z,3.28
2022-10-27T01:35:36.539Z,3.30
2022-10-27T01:35:58.534Z,3.28
2022-10-27T01:36:25.981Z,3.33
2022-10-27T01:36:51.033Z,3.28
2022-10-27T01:37:52.455Z,3.55
2022-10-27T01:38:25.473Z,3.20
2022-10-27T01:38:53.461Z,3.60
2022-10-27T01:39:37.962Z,3.05
2022-10-27T01:40:02.376Z,3.15
2022-10-27T01:40:20.975Z,3.00
2022-10-27T01:40:40.925Z,3.35
2022-10-27T01:41:06.590Z,3.55
2022-10-27T01:41:26.417Z,3.20
2022-10-27T01:41:45.783Z,3.50
2022-10-27T01:42:17.010Z,3.38
2022-10-27T01:42:50.160Z,3.53
2022-10-27T01:43:07.698Z,3.55
2022-10-27T01:43:26.152Z,3.42
2022-10-27T01:43:38.541Z,3.28
2022-10-27T01:43:54.950Z,3.20
2022-10-27T01:44:13.143Z,3.10
2022-10-27T01:44:31.795Z,3.10
2022-10-27T01:44:51.897Z,3.28
2022-10-27T01:45:06.120Z,3.47
2022-10-27T01:45:29.543Z,3.50
2022-10-27T01:45:42.467Z,3.20
2022-10-27T01:45:55.761Z,3.30
2022-10-27T01:46:09.870Z,3.38
2022-10-27T01:46:21.950Z,3.25
2022-10-27T01:46:35.115Z,3.40
2022-10-27T01:46:48.594Z,3.47
2022-10-27T01:47:02.598Z,3.40
2022-10-27T01:47:15.081Z,3.28
2022-10-27T01:47:27.520Z,3.35
2022-10-27T01:47:40.331Z,3.25
2022-10-27T01:47:55.121Z,3.22
2022-10-27T01:48:09.780Z,3.13
2022-10-27T01:48:22.063Z,3.10
2022-10-27T01:48:35.526Z,3.28
2022-10-27T01:48:48.652Z,3.22
2022-10-27T01:49:03.923Z,3.25
2022-10-27T01:49:15.795Z,3.05
2022-10-27T01:49:41.596Z,3.00
2022-10-27T01:49:56.612Z,3.50
2022-10-27T01:50:09.664Z,3.40
2022-10-27T01:50:35.915Z,3.40
2022-10-27T01:51:02.224Z,2.97
2022-10-27T01:51:15.302Z,3.10
2022-10-27T01:51:27.553Z,3.25
2022-10-27T01:51:39.475Z,3.00
2022-10-27T01:51:51.405Z,3.13
2022-10-27T01:52:07.812Z,3.15
2022-10-27T01:52:49.396Z,3.17
2022-10-27T01:53:01.639Z,3.50
2022-10-27T01:53:14.155Z,3.40
2022-10-27T01:53:27.247Z,3.33
2022-10-27T01:53:46.756Z,3.30
2022-10-27T01:53:59.998Z,3.20
2022-10-27T01:54:12.230Z,3.22
2022-10-27T01:54:24.144Z,3.35
2022-10-27T01:54:39.886Z,3.40
2022-10-27T01:54:57.063Z,3.28
2022-10-27T01:55:14.776Z,3.17
2022-10-27T01:55:26.873Z,3.30
2022-10-27T01:56:16.979Z,3.53
2022-10-27T01:56:37.877Z,3.20
2022-10-27T01:56:59.228Z,3.30
2022-10-27T01:57:46.232Z,3.40
2022-10-27T01:58:28.237Z,3.50
2022-10-27T01:58:54.891Z,3.22
2022-10-27T01:59:23.891Z,3.25
2022-10-27T01:59:43.445Z,3.30
2022-10-27T02:00:05.844Z,3.30
2022-10-27T02:00:17.926Z,2.97
2022-10-27T02:00:36.049Z,3.00
2022-10-27T02:01:22.034Z,3.17
2022-10-27T02:01:39.902Z,3.33
2022-10-27T02:02:03.367Z,3.50
2022-10-27T02:02:28.137Z,3.30
2022-10-27T02:03:01.489Z,3.17
2022-10-27T02:03:19.588Z,3.60
2022-10-27T02:03:51.885Z,3.65
2022-10-27T02:04:18.782Z,3.28
2022-10-27T02:04:50.996Z,3.35
2022-10-27T02:05:11.459Z,3.40
2022-10-27T02:05:48.900Z,3.70
2022-10-27T02:06:36.150Z,3.53
2022-10-27T02:07:01.491Z,3.80
2022-10-27T02:07:31.312Z,3.30
2022-10-27T02:07:55.828Z,3.78
2022-10-27T02:08:42.194Z,3.90
2022-10-27T02:09:37.273Z,3.58
2022-10-27T02:09:59.261Z,3.22
2022-10-27T02:10:24.538Z,3.28
2022-10-27T02:10:46.605Z,3.60
2022-10-27T02:11:01.259Z,3.40
2022-10-27T02:11:13.297Z,3.58
2022-10-27T02:11:27.173Z,3.67
2022-10-27T02:11:43.937Z,3.72
2022-10-27T02:11:59.399Z,3.88
2022-10-27T02:12:26.866Z,3.70
2022-10-27T02:12:40.875Z,3.53
2022-10-27T02:12:54.515Z,3.42
2022-10-27T02:13:08.151Z,3.17
2022-10-27T02:13:20.801Z,2.95
2022-10-27T02:13:37.693Z,3.10
2022-10-27T02:13:49.861Z,3.40
2022-10-27T02:14:02.423Z,3.60
2022-10-27T02:14:15.418Z,3.58
2022-10-27T02:14:27.926Z,3.70
2022-10-27T02:14:41.957Z,3.70
2022-10-27T02:14:57.509Z,3.40
2022-10-27T02:15:32.603Z,3.20
2022-10-27T02:15:50.968Z,3.33
2022-10-27T02:16:11.448Z,3.65
2022-10-27T02:16:27.424Z,3.55
2022-10-27T02:16:45.518Z,3.40
2022-10-27T02:16:58.692Z,3.50
2022-10-27T02:17:13.881Z,3.55
2022-10-27T02:17:32.399Z,3.47
2022-10-27T02:17:48.364Z,3.55
2022-10-27T02:18:06.593Z,3.70
2022-10-27T02:18:28.812Z,3.35
2022-10-27T02:18:47.410Z,3.60
2022-10-27T02:19:06.152Z,3.72
2022-10-27T02:19:37.981Z,3.40
2022-10-27T02:19:55.144Z,3.40
2022-10-27T02:20:14.400Z,3.75
2022-10-27T02:20:30.257Z,4.05
2022-10-27T02:20:48.167Z,4.10
2022-10-27T02:21:05.447Z,4.38
2022-10-27T02:21:19.389Z,4.32
2022-10-27T02:21:34.275Z,4.05
2022-10-27T02:21:49.883Z,3.80
2022-10-27T02:22:03.690Z,3.78
2022-10-27T02:22:15.888Z,3.95
2022-10-27T02:22:32.084Z,4.03
2022-10-27T02:22:48.154Z,4.10
2022-10-27T02:23:10.037Z,4.35
2022-10-27T02:23:22.768Z,4.40
2022-10-27T02:23:35.493Z,4.05
2022-10-27T02:23:47.945Z,4.10
2022-10-27T02:23:59.964Z,4.00
2022-10-27T02:24:12.292Z,3.90
2022-10-27T02:24:24.974Z,3.80
2022-10-27T02:24:37.027Z,4.00
2022-10-27T02:24:49.305Z,4.10
2022-10-27T02:25:01.241Z,4.20
2022-10-27T02:25:13.782Z,4.03
2022-10-27T02:25:32.250Z,3.80
2022-10-27T02:25:52.015Z,3.97
2022-10-27T02:26:19.095Z,4.03
2022-10-27T02:26:41.954Z,3.67
2022-10-27T02:27:05.878Z,4.10
2022-10-27T02:27:43.729Z,4.18
2022-10-27T02:28:01.472Z,4.00
2022-10-27T02:28:16.827Z,3.83
2022-10-27T02:28:37.605Z,3.92
2022-10-27T02:29:01.005Z,3.95
2022-10-27T02:29:26.489Z,4.30
2022-10-27T02:29:45.735Z,4.25
2022-10-27T02:30:00.221Z,4.00
2022-10-27T02:30:12.309Z,4.22
2022-10-27T02:30:24.429Z,4.20
2022-10-27T02:30:38.674Z,4.32
2022-10-27T02:30:51.827Z,4.30
2022-10-27T02:31:05.298Z,4.25
2022-10-27T02:31:21.638Z,4.40
2022-10-27T02:31:37.879Z,4.45
2022-10-27T02:31:53.403Z,4.20
2022-10-27T02:32:09.236Z,4.30
2022-10-27T02:32:23.457Z,4.38
2022-10-27T02:32:36.039Z,4.40
2022-10-27T02:32:48.357Z,4.45
2022-10-27T02:33:00.923Z,4.18
2022-10-27T02:33:13.609Z,4.20
2022-10-27T02:33:25.799Z,4.50
2022-10-27T02:33:38.278Z,4.72
2022-10-27T02:33:52.553Z,4.95
2022-10-27T02:34:05.640Z,4.63
2022-10-27T02:34:18.562Z,4.20
2022-10-27T02:34:32.920Z,4.57
2022-10-27T02:34:47.841Z,4.90
2022-10-27T02:35:01.612Z,4.85
2022-10-27T02:35:16.786Z,4.80
2022-10-27T02:35:29.231Z,4.55
2022-10-27T02:35:44.898Z,4.30
2022-10-27T02:36:00.797Z,4.22
2022-10-27T02:36:12.723Z,4.20
2022-10-27T02:36:24.896Z,4.10
2022-10-27T02:36:36.843Z,4.45
2022-10-27T02:36:48.847Z,4.72
2022-10-27T02:37:00.771Z,4.90
2022-10-27T02:37:37.411Z,4.90
2022-10-27T02:37:49.327Z,4.90
2022-10-27T02:38:01.187Z,4.93
2022-10-27T02:38:13.695Z,5.20
2022-10-27T02:38:25.625Z,5.10
2022-10-27T02:38:37.636Z,4.75
2022-10-27T02:38:49.523Z,4.90
2022-10-27T02:39:01.424Z,5.00
2022-10-27T02:39:13.476Z,5.03
2022-10-27T02:39:25.926Z,5.05
2022-10-27T02:39:37.847Z,5.03
2022-10-27T02:39:49.815Z,5.20
2022-10-27T02:40:02.125Z,4.68
2022-10-27T02:40:14.028Z,4.50
2022-10-27T02:40:26.396Z,4.40
2022-10-27T02:40:38.401Z,4.72
2022-10-27T02:40:50.561Z,4.70
2022-10-27T02:41:02.523Z,4.65
2022-10-27T02:41:14.545Z,4.55
2022-10-27T02:41:26.504Z,4.82
2022-10-27T02:41:38.381Z,4.88
2022-10-27T02:41:50.460Z,4.88
2022-10-27T02:42:04.683Z,5.00
2022-10-27T02:42:16.684Z,5.07
2022-10-27T02:42:28.642Z,4.97
2022-10-27T02:42:40.519Z,4.63
2022-10-27T02:42:52.750Z,4.90
2022-10-27T02:43:04.792Z,4.88
2022-10-27T02:43:16.692Z,4.80
2022-10-27T02:43:28.706Z,4.63
2022-10-27T02:43:40.742Z,4.85
2022-10-27T02:43:52.690Z,5.10
2022-10-27T02:44:04.609Z,5.10
2022-10-27T02:44:16.778Z,4.68
2022-10-27T02:44:28.706Z,4.22
2022-10-27T02:44:40.615Z,4.00
2022-10-27T02:44:52.551Z,4.00
2022-10-27T02:45:04.832Z,4.15
2022-10-27T02:45:16.914Z,4.40
2022-10-27T02:45:28.818Z,4.55
2022-10-27T02:45:40.693Z,4.80
2022-10-27T02:45:53.081Z,5.00
2022-10-27T02:46:05.065Z,5.00
2022-10-27T02:46:16.998Z,4.60
2022-10-27T02:46:28.895Z,4.50
2022-10-27T02:46:43.592Z,4.40
2022-10-27T02:46:59.861Z,4.38
2022-10-27T02:47:13.245Z,4.70
2022-10-27T02:47:25.171Z,4.72
2022-10-27T02:47:37.062Z,4.68
2022-10-27T02:47:49.030Z,4.75
2022-10-27T02:48:01.033Z,4.90
2022-10-27T02:48:12.944Z,4.90
2022-10-27T02:48:24.814Z,4.82
2022-10-27T02:48:36.683Z,4.80
2022-10-27T02:48:48.572Z,4.70
2022-10-27T02:49:00.567Z,4.53
2022-10-27T02:49:12.623Z,4.72
2022-10-27T02:49:24.519Z,4.85
2022-10-27T02:49:36.577Z,4.90
2022-10-27T02:49:48.464Z,4.88
2022-10-27T02:50:00.370Z,4.68
2022-10-27T02:50:12.287Z,4.45
2022-10-27T02:50:24.168Z,4.53
2022-10-27T02:50:36.158Z,4.70
2022-10-27T02:50:48.051Z,4.80
2022-10-27T02:51:00.026Z,4.85
2022-10-27T02:51:11.974Z,5.28
2022-10-27T02:51:23.857Z,5.03
2022-10-27T02:51:35.746Z,4.95
2022-10-27T02:51:47.678Z,5.00
2022-10-27T02:51:59.806Z,5.00
2022-10-27T02:52:11.983Z,4.93
2022-10-27T02:52:23.931Z,5.20
2022-10-27T02:52:35.824Z,5.30
2022-10-27T02:52:47.933Z,5.00
2022-10-27T02:52:59.982Z,4.53
2022-10-27T02:53:11.923Z,4.60
2022-10-27T02:53:23.831Z,4.63
2022-10-27T02:53:35.763Z,4.88
2022-10-27T02:53:47.650Z,4.88
2022-10-27T02:53:59.524Z,4.85
2022-10-27T02:54:11.416Z,4.90
2022-10-27T02:54:23.492Z,5.00
2022-10-27T02:54:35.407Z,5.03
2022-10-27T02:54:48.414Z,5.00
2022-10-27T02:55:00.455Z,4.75
2022-10-27T02:55:12.469Z,4.35
2022-10-27T02:55:24.491Z,4.40
2022-10-27T02:55:36.383Z,4.82
2022-10-27T02:55:48.257Z,4.93
2022-10-27T02:56:00.346Z,5.10
2022-10-27T02:56:12.448Z,4.65
2022-10-27T02:56:24.409Z,4.70
2022-10-27T02:56:36.348Z,4.50
2022-10-27T02:56:48.427Z,4.80
2022-10-27T02:57:00.317Z,4.72
2022-10-27T02:57:12.320Z,4.72
2022-10-27T02:57:24.282Z,5.13
2022-10-27T02:57:36.299Z,5.35
2022-10-27T02:57:48.186Z,5.22
2022-10-27T02:58:00.081Z,4.75
2022-10-27T02:58:12.043Z,4.80
2022-10-27T02:58:23.925Z,4.95
2022-10-27T02:58:36.446Z,5.05
2022-10-27T02:58:48.320Z,5.03
2022-10-27T02:59:00.253Z,5.10
2022-10-27T02:59:12.122Z,5.03
2022-10-27T02:59:24.070Z,4.82
2022-10-27T02:59:36.072Z,4.90
2022-10-27T02:59:51.020Z,5.10
2022-10-27T03:00:06.825Z,4.93
2022-10-27T03:00:18.778Z,4.63
2022-10-27T03:00:30.726Z,4.57
2022-10-27T03:00:42.782Z,4.45
2022-10-27T03:00:55.938Z,5.07
2022-10-27T03:01:08.118Z,5.18
2022-10-27T03:01:20.197Z,5.00
2022-10-27T03:01:32.676Z,4.72
2022-10-27T03:01:44.770Z,4.80
2022-10-27T03:01:56.787Z,5.07
2022-10-27T03:02:08.946Z,5.18
2022-10-27T03:02:23.277Z,5.05
2022-10-27T03:02:35.712Z,4.95
2022-10-27T03:02:48.983Z,4.80
2022-10-27T03:03:02.705Z,4.80
2022-10-27T03:03:14.599Z,4.82
2022-10-27T03:03:26.529Z,5.00
2022-10-27T03:03:38.464Z,5.10
2022-10-27T03:03:50.350Z,5.07
2022-10-27T03:04:02.260Z,4.70
2022-10-27T03:04:14.282Z,4.60
2022-10-27T03:04:26.210Z,4.60
2022-10-27T03:04:38.203Z,5.20
2022-10-27T03:04:50.358Z,5.20
2022-10-27T03:05:03.480Z,5.13
2022-10-27T03:05:15.803Z,4.43
2022-10-27T03:05:27.721Z,4.78
2022-10-27T03:05:39.727Z,5.20
2022-10-27T03:05:52.031Z,5.15
2022-10-27T03:06:03.985Z,5.07
2022-10-27T03:06:15.877Z,5.00
2022-10-27T03:06:27.839Z,4.90
2022-10-27T03:06:39.745Z,4.95
2022-10-27T03:06:52.293Z,5.10
2022-10-27T03:07:04.925Z,5.13
2022-10-27T03:07:17.097Z,4.97
2022-10-27T03:07:29.088Z,4.93
2022-10-27T03:07:42.804Z,4.90
2022-10-27T03:07:54.690Z,4.57
2022-10-27T03:08:06.577Z,4.60
2022-10-27T03:08:19.255Z,4.55
2022-10-27T03:08:31.176Z,4.72
2022-10-27T03:08:43.064Z,5.25
2022-10-27T03:08:54.993Z,5.50
2022-10-27T03:09:07.476Z,5.03
2022-10-27T03:09:19.383Z,5.00
2022-10-27T03:09:31.454Z,5.15
2022-10-27T03:09:43.342Z,5.20
2022-10-27T03:09:55.357Z,4.93
2022-10-27T03:10:07.673Z,4.80
2022-10-27T03:10:19.664Z,5.00
2022-10-27T03:10:31.613Z,5.40
2022-10-27T03:10:44.557Z,5.47
2022-10-27T03:10:56.428Z,5.35
2022-10-27T03:11:08.430Z,5.07
2022-10-27T03:11:21.017Z,5.38
2022-10-27T03:11:32.925Z,5.30
2022-10-27T03:11:46.332Z,5.05
2022-10-27T03:11:58.581Z,4.78
2022-10-27T03:12:10.454Z,5.10
2022-10-27T03:12:22.419Z,5.15
2022-10-27T03:12:34.347Z,5.13
2022-10-27T03:12:49.453Z,4.78
2022-10-27T03:13:01.639Z,5.18
2022-10-27T03:13:13.612Z,5.30
2022-10-27T03:13:25.548Z,5.30
2022-10-27T03:13:37.443Z,4.95
2022-10-27T03:13:49.378Z,4.95
2022-10-27T03:14:01.284Z,4.93
2022-10-27T03:14:13.287Z,5.30
2022-10-27T03:14:25.227Z,5.50
2022-10-27T03:14:37.311Z,5.03
2022-10-27T03:14:49.326Z,4.85
2022-10-27T03:15:01.382Z,4.93
2022-10-27T03:15:13.316Z,5.10
2022-10-27T03:15:25.374Z,5.13
2022-10-27T03:15:37.710Z,5.05
2022-10-27T03:16:13.289Z,4.72
2022-10-27T03:16:25.355Z,5.20
2022-10-27T03:16:37.609Z,5.18
2022-10-27T03:16:49.524Z,6.03
2022-10-27T03:17:01.517Z,6.03
2022-10-27T03:17:13.447Z,6.15
2022-10-27T03:17:25.491Z,5.30
2022-10-27T03:17:43.743Z,5.07
2022-10-27T03:17:55.609Z,4.88
2022-10-27T03:18:07.586Z,4.82
2022-10-27T03:18:19.459Z,4.85
2022-10-27T03:18:31.364Z,4.95
2022-10-27T03:18:43.239Z,4.85
2022-10-27T03:18:55.377Z,4.90
2022-10-27T03:19:07.309Z,5.18
2022-10-27T03:19:19.200Z,5.30
2022-10-27T03:19:31.071Z,5.40
2022-10-27T03:19:42.992Z,5.60
2022-10-27T03:19:54.958Z,5.80
2022-10-27T03:20:07.159Z,5.50
2022-10-27T03:20:19.082Z,5.10
2022-10-27T03:20:31.115Z,5.10
2022-10-27T03:20:45.748Z,5.40
2022-10-27T03:20:57.625Z,5.28
2022-10-27T03:21:09.577Z,5.15
2022-10-27T03:21:21.724Z,4.95
2022-10-27T03:21:33.601Z,5.20
2022-10-27T03:21:45.513Z,5.20
2022-10-27T03:21:57.411Z,5.10
2022-10-27T03:22:09.321Z,5.07
2022-10-27T03:22:21.427Z,5.30
2022-10-27T03:22:37.489Z,5.60
2022-10-27T03:22:49.706Z,5.40
2022-10-27T03:23:01.928Z,5.45
2022-10-27T03:23:14.320Z,5.45
2022-10-27T03:23:26.419Z,5.53
2022-10-27T03:23:38.339Z,5.65
2022-10-27T03:23:50.439Z,5.50
2022-10-27T03:24:02.371Z,5.15
2022-10-27T03:24:14.354Z,5.18
2022-10-27T03:24:26.211Z,5.20
2022-10-27T03:24:38.123Z,5.13
2022-10-27T03:24:50.061Z,5.22
2022-10-27T03:25:02.004Z,5.40
2022-10-27T03:25:15.151Z,5.72
2022-10-27T03:25:27.075Z,5.70